Time;durP1;ratioP1;P1;durP2;ratioP2;P2;SDS_P1;SDS_P2;PMS_P1;PMS_P2;Temp;Humidity;BMP_temperature;BMP_pressure;BME280_temperature;BME280_humidity;BME280_pressure;Samples;Min_cycle;Max_cycle;Signal;HPM_P1;HPM_P2
2023/10/30 00:00:20;;;;;;;;;;;;;;;;;;6280555;28;19912;-79
2023/10/30 00:03:20;;;;;;;;;;;;;;;;;;6275951;28;19913;-79
2023/10/30 00:06:21;;;;;;;;;;;;;;;;;;6296082;28;19912;-79
2023/10/30 00:09:22;;;;;;;;;;;;;;;;;;6273265;28;19913;-79
2023/10/30 00:12:22;;;;;;;;;;;;;;;;;;6297478;28;19912;-79
2023/10/30 00:15:23;;;;;;;;;;;;;;;;;;6291261;28;19977;-79
2023/10/30 00:18:23;;;;;;;;;;;;;;;;;;6293410;28;19924;-79
2023/10/30 00:21:23;;;;;;;;;;;;;;;;;;6294380;28;19978;-79
2023/10/30 00:24:23;;;;;;;;;;;;;;;;;;6283242;28;19956;-79
2023/10/30 00:27:24;;;;;;;;;;;;;;;;;;6289356;28;20358;-79
2023/10/30 00:30:24;;;;;;;;;;;;;;;;;;6278036;28;19924;-79
2023/10/30 00:33:24;;;;;;;;;;;;;;;;;;6271109;28;19912;-79
2023/10/30 00:36:24;;;;;;;;;;;;;;;;;;6275393;28;20370;-79
2023/10/30 00:39:24;;;;;;;;;;;;;;;;;;6282511;28;20019;-79
2023/10/30 00:42:27;;;;;;;;;;;;;;;;;;6282904;28;20007;-79
2023/10/30 00:45:27;;;;;;;;;;;;;;;;;;6288318;28;19908;-80
2023/10/30 00:48:27;;;;;;;;;;;;;;;;;;6293810;28;19974;-79
2023/10/30 00:51:27;;;;;;;;;;;;;;;;;;6291138;28;20282;-79
2023/10/30 00:54:27;;;;;;;;;;;;;;;;;;6278279;28;20042;-79
2023/10/30 00:57:28;;;;;;;;;;;;;;;;;;6286161;28;19924;-80
2023/10/30 01:00:28;;;;;;;;;;;;;;;;;;6292924;28;20527;-79
2023/10/30 01:03:28;;;;;;;;;;;;;;;;;;6291712;28;20019;-80
2023/10/30 01:06:28;;;;;;;;;;;;;;;;;;6273061;28;19961;-80
2023/10/30 01:09:28;;;;;;;;;;;;;;;;;;6281031;28;19920;-80
2023/10/30 01:12:28;;;;;;;;;;;;;;;;;;6293415;28;20274;-80
2023/10/30 01:15:29;;;;;;;;;;;;;;;;;;6283919;28;19920;-79
2023/10/30 01:18:30;;;;;;;;;;;;;;;;;;6290631;28;20397;-80
2023/10/30 01:21:30;;;;;;;;;;;;;;;;;;6271398;28;19912;-80
2023/10/30 01:24:30;;;;;;;;;;;;;;;;;;6285438;28;19920;-80
2023/10/30 01:27:30;;;;;;;;;;;;;;;;;;6288019;28;20033;-81
2023/10/30 01:30:30;;;;;;;;;;;;;;;;;;6278776;28;19913;-80
2023/10/30 01:33:30;;;;;;;;;;;;;;;;;;6276583;28;20386;-79
2023/10/30 01:36:30;;;;;;;;;;;;;;;;;;6280001;28;20277;-79
2023/10/30 01:39:30;;;;;;;;;;;;;;;;;;6294388;28;19951;-80
2023/10/30 01:42:31;;;;;;;;;;;;;;;;;;6274437;28;19973;-80
2023/10/30 01:45:31;;;;;;;;;;;;;;;;;;6276786;28;19916;-80
2023/10/30 01:48:31;;;;;;;;;;;;;;;;;;6269685;28;19919;-80
2023/10/30 01:51:31;;;;;;;;;;;;;;;;;;6274420;28;19919;-79
2023/10/30 01:54:32;;;;;;;;;;;;;;;;;;6280890;28;19908;-79
2023/10/30 01:57:32;;;;;;;;;;;;;;;;;;6282924;28;19921;-82
2023/10/30 02:00:32;;;;;;;;;;;;;;;;;;6288072;28;19913;-82
2023/10/30 02:03:32;;;;;;;;;;;;;;;;;;6271922;28;20002;-83
2023/10/30 02:06:32;;;;;;;;;;;;;;;;;;6290689;28;20446;-80
2023/10/30 02:09:32;;;;;;;;;;;;;;;;;;6283012;28;19912;-80
2023/10/30 02:12:32;;;;;;;;;;;;;;;;;;6287233;28;19920;-80
2023/10/30 02:15:32;;;;;;;;;;;;;;;;;;6278134;28;19919;-80
2023/10/30 02:18:32;;;;;;;;;;;;;;;;;;6284439;28;19920;-82
2023/10/30 02:21:33;;;;;;;;;;;;;;;;;;6296327;28;19919;-82
2023/10/30 02:24:33;;;;;;;;;;;;;;;;;;6295119;28;19919;-83
2023/10/30 02:27:33;;;;;;;;;;;;;;;;;;6286695;28;19974;-83
2023/10/30 02:30:33;;;;;;;;;;;;;;;;;;6281131;28;20030;-83
2023/10/30 02:33:33;;;;;;;;;;;;;;;;;;6278196;28;20343;-83
2023/10/30 02:36:33;;;;;;;;;;;;;;;;;;6285040;28;20335;-83
2023/10/30 02:39:34;;;;;;;;;;;;;;;;;;6287062;28;19916;-83
2023/10/30 02:42:34;;;;;;;;;;;;;;;;;;6283491;28;19913;-83
2023/10/30 02:45:34;;;;;;;;;;;;;;;;;;6283768;28;19919;-82
2023/10/30 02:48:34;;;;;;;;;;;;;;;;;;6299394;28;20008;-82
2023/10/30 02:51:35;;;;;;;;;;;;;;;;;;6289703;28;19919;-83
2023/10/30 02:54:35;;;;;;;;;;;;;;;;;;6299517;28;20294;-83
2023/10/30 02:57:35;;;;;;;;;;;;;;;;;;6285262;28;19965;-83
2023/10/30 03:00:35;;;;;;;;;;;;;;;;;;6290937;28;19996;-82
2023/10/30 03:03:35;;;;;;;;;;;;;;;;;;6275981;28;19915;-83
2023/10/30 03:06:35;;;;;;;;;;;;;;;;;;6287272;28;19954;-83
2023/10/30 03:09:36;;;;;;;;;;;;;;;;;;6294173;28;20457;-83
2023/10/30 03:12:36;;;;;;;;;;;;;;;;;;6291081;28;19920;-83
2023/10/30 03:15:36;;;;;;;;;;;;;;;;;;6286612;28;20294;-83
2023/10/30 03:18:36;;;;;;;;;;;;;;;;;;6288033;28;20039;-83
2023/10/30 03:21:36;;;;;;;;;;;;;;;;;;6279973;28;19988;-83
2023/10/30 03:24:36;;;;;;;;;;;;;;;;;;6282081;28;19912;-83
2023/10/30 03:27:36;;;;;;;;;;;;;;;;;;6283733;28;19916;-80
2023/10/30 03:30:37;;;;;;;;;;;;;;;;;;6285084;28;19999;-80
2023/10/30 03:33:37;;;;;;;;;;;;;;;;;;6271195;28;19908;-80
2023/10/30 03:36:37;;;;;;;;;;;;;;;;;;6286273;28;19913;-80
2023/10/30 03:39:37;;;;;;;;;;;;;;;;;;6294497;28;20394;-80
2023/10/30 03:42:37;;;;;;;;;;;;;;;;;;6281283;28;19953;-80
2023/10/30 03:45:37;;;;;;;;;;;;;;;;;;6294094;28;19912;-80
2023/10/30 03:48:37;;;;;;;;;;;;;;;;;;6285068;28;20267;-80
2023/10/30 03:51:37;;;;;;;;;;;;;;;;;;6297539;28;20019;-79
2023/10/30 03:54:38;;;;;;;;;;;;;;;;;;6296070;28;19924;-79
2023/10/30 03:57:40;;;;;;;;;;;;;;;;;;6283460;28;19931;-80
2023/10/30 04:00:41;;;;;;;;;;;;;;;;;;6290852;28;20016;-79
2023/10/30 04:03:41;;;;;;;;;;;;;;;;;;6287242;28;19975;-79
2023/10/30 04:06:42;;;;;;;;;;;;;;;;;;6283381;28;19920;-80
2023/10/30 04:09:42;;;;;;;;;;;;;;;;;;6288575;28;19924;-80
2023/10/30 04:12:42;;;;;;;;;;;;;;;;;;6278904;28;19921;-80
2023/10/30 04:15:42;;;;;;;;;;;;;;;;;;6291423;28;20287;-80
2023/10/30 04:18:42;;;;;;;;;;;;;;;;;;6284764;28;20302;-80
2023/10/30 04:21:43;;;;;;;;;;;;;;;;;;6282619;28;19955;-79
2023/10/30 04:24:43;;;;;;;;;;;;;;;;;;6293754;28;19923;-79
2023/10/30 04:27:43;;;;;;;;;;;;;;;;;;6290044;28;19940;-79
2023/10/30 04:30:43;;;;;;;;;;;;;;;;;;6288734;28;19921;-80
2023/10/30 04:33:43;;;;;;;;;;;;;;;;;;6284503;28;19909;-80
2023/10/30 04:36:43;;;;;;;;;;;;;;;;;;6277713;28;19912;-80
2023/10/30 04:39:44;;;;;;;;;;;;;;;;;;6272516;28;20371;-80
2023/10/30 04:42:44;;;;;;;;;;;;;;;;;;6278310;28;20429;-80
2023/10/30 04:45:44;;;;;;;;;;;;;;;;;;6271349;28;19995;-79
2023/10/30 04:48:44;;;;;;;;;;;;;;;;;;6277483;28;19909;-83
2023/10/30 04:51:44;;;;;;;;;;;;;;;;;;6278561;28;19909;-82
2023/10/30 04:54:44;;;;;;;;;;;;;;;;;;6285763;28;19927;-82
2023/10/30 04:57:44;;;;;;;;;;;;;;;;;;6283924;28;19921;-83
2023/10/30 05:00:44;;;;;;;;;;;;;;;;;;6279305;28;19909;-82
2023/10/30 05:03:44;;;;;;;;;;;;;;;;;;6288669;28;19908;-82
2023/10/30 05:06:46;;;;;;;;;;;;;;;;;;6279638;28;19916;-82
2023/10/30 05:09:46;;;;;;;;;;;;;;;;;;6290465;28;20370;-82
2023/10/30 05:12:46;;;;;;;;;;;;;;;;;;6294925;28;19919;-83
2023/10/30 05:15:46;;;;;;;;;;;;;;;;;;6283956;28;19919;-83
2023/10/30 05:18:46;;;;;;;;;;;;;;;;;;6280251;28;19938;-82
2023/10/30 05:21:46;;;;;;;;;;;;;;;;;;6274851;28;19963;-83
2023/10/30 05:24:47;;;;;;;;;;;;;;;;;;6281579;28;19916;-83
2023/10/30 05:27:47;;;;;;;;;;;;;;;;;;6283767;28;19952;-83
2023/10/30 05:30:48;;;;;;;;;;;;;;;;;;6293637;28;19919;-83
2023/10/30 05:33:48;;;;;;;;;;;;;;;;;;6291422;28;19915;-83
2023/10/30 05:36:48;;;;;;;;;;;;;;;;;;6281780;28;19924;-82
2023/10/30 05:39:48;;;;;;;;;;;;;;;;;;6277155;28;19925;-82
2023/10/30 05:42:50;;;;;;;;;;;;;;;;;;6282913;28;20008;-82
2023/10/30 05:45:50;;;;;;;;;;;;;;;;;;6279178;28;19917;-81
2023/10/30 05:48:50;;;;;;;;;;;;;;;;;;6280807;28;19912;-82
2023/10/30 05:51:50;;;;;;;;;;;;;;;;;;6283271;28;20341;-82
2023/10/30 05:54:50;;;;;;;;;;;;;;;;;;6280315;28;19922;-83
2023/10/30 05:57:50;;;;;;;;;;;;;;;;;;6286476;28;19920;-80
2023/10/30 06:00:52;;;;;;;;;;;;;;;;;;6277011;28;19909;-78
2023/10/30 06:03:52;;;;;;;;;;;;;;;;;;6285693;28;19960;-79
2023/10/30 06:06:52;;;;;;;;;;;;;;;;;;6288713;28;19926;-82
2023/10/30 06:09:53;;;;;;;;;;;;;;;;;;6283437;28;19924;-82
2023/10/30 06:12:53;;;;;;;;;;;;;;;;;;6288668;28;20011;-84
2023/10/30 06:15:54;;;;;;;;;;;;;;;;;;6286585;28;19912;-83
2023/10/30 06:18:54;;;;;;;;;;;;;;;;;;6276701;28;19921;-82
2023/10/30 06:21:54;;;;;;;;;;;;;;;;;;6278193;28;19920;-83
2023/10/30 06:24:55;;;;;;;;;;;;;;;;;;6283120;28;19917;-82
2023/10/30 06:27:55;;;;;;;;;;;;;;;;;;6289500;28;19912;-81
2023/10/30 06:30:55;;;;;;;;;;;;;;;;;;6279828;28;19913;-82
2023/10/30 06:33:56;;;;;;;;;;;;;;;;;;6277060;28;19962;-83
2023/10/30 06:36:56;;;;;;;;;;;;;;;;;;6284574;28;19917;-83
2023/10/30 06:39:56;;;;;;;;;;;;;;;;;;6286440;28;19927;-83
2023/10/30 06:42:56;;;;;;;;;;;;;;;;;;6278327;28;19919;-83
2023/10/30 06:45:56;;;;;;;;;;;;;;;;;;6290157;28;19956;-82
2023/10/30 06:48:56;;;;;;;;;;;;;;;;;;6286195;28;19915;-82
2023/10/30 06:51:56;;;;;;;;;;;;;;;;;;6280238;28;19959;-83
2023/10/30 06:54:56;;;;;;;;;;;;;;;;;;6274987;28;19909;-82
2023/10/30 06:57:57;;;;;;;;;;;;;;;;;;6276634;28;20294;-83
2023/10/30 07:00:57;;;;;;;;;;;;;;;;;;6283723;28;19995;-84
2023/10/30 07:03:58;;;;;;;;;;;;;;;;;;6292538;28;19916;-83
2023/10/30 07:06:58;;;;;;;;;;;;;;;;;;6278921;28;20007;-83
2023/10/30 07:09:58;;;;;;;;;;;;;;;;;;6283916;28;19912;-83
2023/10/30 07:12:58;;;;;;;;;;;;;;;;;;6282604;28;19913;-84
2023/10/30 07:15:59;;;;;;;;;;;;;;;;;;6294627;28;19924;-83
2023/10/30 07:18:59;;;;;;;;;;;;;;;;;;6283848;28;20031;-79
2023/10/30 07:21:59;;;;;;;;;;;;;;;;;;6280408;28;19913;-80
2023/10/30 07:25:00;;;;;;;;;;;;;;;;;;6293208;28;19998;-80
2023/10/30 07:28:00;;;;;;;;;;;;;;;;;;6300115;28;20015;-83
2023/10/30 07:31:00;;;;;;;;;;;;;;;;;;6289866;28;19913;-83
2023/10/30 07:34:00;;;;;;;;;;;;;;;;;;6289924;28;19959;-83
2023/10/30 07:37:00;;;;;;;;;;;;;;;;;;6273025;28;19954;-84
2023/10/30 07:40:00;;;;;;;;;;;;;;;;;;6289781;28;20390;-83
2023/10/30 07:43:00;;;;;;;;;;;;;;;;;;6299635;28;19913;-84
2023/10/30 07:46:01;;;;;;;;;;;;;;;;;;6294553;28;19999;-84
2023/10/30 07:49:01;;;;;;;;;;;;;;;;;;6282495;28;19936;-84
2023/10/30 07:52:01;;;;;;;;;;;;;;;;;;6272710;28;20020;-84
2023/10/30 07:55:02;;;;;;;;;;;;;;;;;;6286499;28;19909;-85
2023/10/30 07:58:02;;;;;;;;;;;;;;;;;;6282866;28;19925;-84
2023/10/30 08:01:03;;;;;;;;;;;;;;;;;;6279397;28;19908;-84
2023/10/30 08:04:03;;;;;;;;;;;;;;;;;;6291145;28;19965;-84
2023/10/30 08:07:03;;;;;;;;;;;;;;;;;;6277819;28;19912;-85
2023/10/30 08:10:04;;;;;;;;;;;;;;;;;;6292547;28;19913;-85
2023/10/30 08:13:04;;;;;;;;;;;;;;;;;;6298018;28;19919;-85
2023/10/30 08:16:05;;;;;;;;;;;;;;;;;;6291023;28;19925;-86
2023/10/30 08:19:05;;;;;;;;;;;;;;;;;;6290193;28;20373;-85
2023/10/30 08:22:05;;;;;;;;;;;;;;;;;;6304159;28;20315;-85
2023/10/30 08:25:05;;;;;;;;;;;;;;;;;;6293057;28;19944;-85
2023/10/30 08:28:05;;;;;;;;;;;;;;;;;;6293200;28;19912;-81
2023/10/30 08:31:05;;;;;;;;;;;;;;;;;;6286179;28;20015;-81
2023/10/30 08:34:06;;;;;;;;;;;;;;;;;;6273618;28;20429;-81
2023/10/30 08:37:06;;;;;;;;;;;;;;;;;;6280520;28;19909;-81
2023/10/30 08:40:08;;;;;;;;;;;;;;;;;;6288939;28;19954;-81
2023/10/30 08:43:08;;;;;;;;;;;;;;;;;;6288280;28;19912;-81
2023/10/30 08:46:08;;;;;;;;;;;;;;;;;;6283001;28;19913;-81
2023/10/30 08:49:08;;;;;;;;;;;;;;;;;;6283591;28;19946;-81
2023/10/30 08:52:09;;;;;;;;;;;;;;;;;;6280465;28;19908;-81
2023/10/30 08:55:09;;;;;;;;;;;;;;;;;;6288716;28;20397;-81
2023/10/30 08:58:09;;;;;;;;;;;;;;;;;;6282279;28;19925;-80
2023/10/30 09:01:09;;;;;;;;;;;;;;;;;;6277538;28;19919;-80
2023/10/30 09:04:10;;;;;;;;;;;;;;;;;;6287033;28;19913;-80
2023/10/30 09:07:10;;;;;;;;;;;;;;;;;;6291775;28;19948;-81
2023/10/30 09:10:10;;;;;;;;;;;;;;;;;;6281003;28;19962;-81
2023/10/30 09:13:10;;;;;;;;;;;;;;;;;;6272293;28;19912;-81
2023/10/30 09:16:11;;;;;;;;;;;;;;;;;;6278211;28;19912;-81
2023/10/30 09:19:11;;;;;;;;;;;;;;;;;;6288575;28;19969;-81
2023/10/30 09:22:12;;;;;;;;;;;;;;;;;;6294799;28;19908;-81
2023/10/30 09:25:12;;;;;;;;;;;;;;;;;;6292158;28;20007;-81
2023/10/30 09:28:12;;;;;;;;;;;;;;;;;;6284992;28;19995;-81
2023/10/30 09:31:12;;;;;;;;;;;;;;;;;;6286977;28;19916;-81
2023/10/30 09:34:13;;;;;;;;;;;;;;;;;;6288145;28;19923;-81
2023/10/30 09:37:13;;;;;;;;;;;;;;;;;;6280553;28;19928;-81
2023/10/30 09:40:13;;;;;;;;;;;;;;;;;;6281637;28;20668;-81
2023/10/30 09:43:13;;;;;;;;;;;;;;;;;;6283855;28;19916;-81
2023/10/30 09:46:14;;;;;;;;;;;;;;;;;;6284867;28;20345;-81
2023/10/30 09:49:14;;;;;;;;;;;;;;;;;;6275376;28;20301;-81
2023/10/30 09:52:15;;;;;;;;;;;;;;;;;;6282292;28;19921;-81
2023/10/30 09:55:15;;;;;;;;;;;;;;;;;;6284694;28;19927;-80
2023/10/30 09:58:15;;;;;;;;;;;;;;;;;;6284948;28;19955;-80
2023/10/30 10:01:17;;;;;;;;;;;;;;;;;;6284311;28;19913;-80
2023/10/30 10:04:19;;;;;;;;;;;;;;;;;;6289194;28;20414;-80
2023/10/30 10:07:19;;;;;;;;;;;;;;;;;;6308906;28;20040;-80
2023/10/30 10:10:19;;;;;;;;;;;;;;;;;;6307269;28;19909;-80
2023/10/30 10:13:19;;;;;;;;;;;;;;;;;;6314287;28;20362;-80
2023/10/30 10:16:19;;;;;;;;;;;;;;;;;;6306561;28;19934;-80
2023/10/30 10:19:20;;;;;;;;;;;;;;;;;;6297951;28;19916;-79
2023/10/30 10:22:20;;;;;;;;;;;;;;;;;;6305016;28;19913;-80
2023/10/30 10:25:21;;;;;;;;;;;;;;;;;;6301565;28;19920;-80
2023/10/30 10:28:21;;;;;;;;;;;;;;;;;;6312700;28;20434;-81
2023/10/30 10:31:22;;;;;;;;;;;;;;;;;;6314396;28;20518;-81
2023/10/30 10:34:23;;;;;;;;;;;;;;;;;;6299278;28;20435;-81
2023/10/30 10:37:23;;;;;;;;;;;;;;;;;;6314635;28;19923;-80
2023/10/30 10:40:25;;;;;;;;;;;;;;;;;;6305445;28;19925;-80
2023/10/30 10:43:25;;;;;;;;;;;;;;;;;;6315509;28;20373;-80
2023/10/30 10:46:25;;;;;;;;;;;;;;;;;;6307287;28;19920;-80
2023/10/30 10:49:25;;;;;;;;;;;;;;;;;;6310825;28;19919;-79
2023/10/30 10:52:25;;;;;;;;;;;;;;;;;;6317721;28;20012;-81
2023/10/30 10:55:25;;;;;;;;;;;;;;;;;;6329114;28;20566;-80
2023/10/30 10:58:25;;;;;;;;;;;;;;;;;;6311031;28;19924;-85
2023/10/30 11:01:26;;;;;;;;;;;;;;;;;;6322974;28;19917;-86
2023/10/30 11:04:26;;;;;;;;;;;;;;;;;;6309787;28;19917;-86
2023/10/30 11:07:26;;;;;;;;;;;;;;;;;;6305066;28;20390;-80
2023/10/30 11:10:26;;;;;;;;;;;;;;;;;;6317253;28;19920;-80
2023/10/30 11:13:27;;;;;;;;;;;;;;;;;;6307679;28;19948;-80
2023/10/30 11:16:27;;;;;;;;;;;;;;;;;;6317422;28;19912;-80
2023/10/30 11:19:28;;;;;;;;;;;;;;;;;;6295378;28;19916;-80
2023/10/30 11:22:28;;;;;;;;;;;;;;;;;;6307786;28;19913;-79
2023/10/30 11:25:28;;;;;;;;;;;;;;;;;;6300772;28;19913;-79
2023/10/30 11:28:28;;;;;;;;;;;;;;;;;;6322414;28;20298;-79
2023/10/30 11:31:28;;;;;;;;;;;;;;;;;;6319118;28;19918;-80
2023/10/30 11:34:29;;;;;;;;;;;;;;;;;;6328292;28;19919;-80
2023/10/30 11:37:29;;;;;;;;;;;;;;;;;;6299820;28;19916;-77
2023/10/30 11:40:30;;;;;;;;;;;;;;;;;;6310472;28;19919;-79
2023/10/30 11:43:30;;;;;;;;;;;;;;;;;;6318295;28;19955;-80
2023/10/30 11:46:30;;;;;;;;;;;;;;;;;;6320073;28;20465;-77
2023/10/30 11:49:32;;;;;;;;;;;;;;;;;;6306719;28;20380;-78
2023/10/30 11:52:32;;;;;;;;;;;;;;;;;;6310330;28;20012;-78
2023/10/30 11:55:32;;;;;;;;;;;;;;;;;;6321325;28;19913;-79
2023/10/30 11:58:33;;;;;;;;;;;;;;;;;;6295702;28;19959;-79
2023/10/30 12:01:33;;;;;;;;;;;;;;;;;;6311758;28;19920;-78
2023/10/30 12:04:33;;;;;;;;;;;;;;;;;;6302650;28;20054;-78
2023/10/30 12:07:33;;;;;;;;;;;;;;;;;;6314878;28;19947;-79
2023/10/30 12:10:33;;;;;;;;;;;;;;;;;;6322840;28;19935;-78
2023/10/30 12:13:33;;;;;;;;;;;;;;;;;;6318082;28;19912;-79
2023/10/30 12:16:33;;;;;;;;;;;;;;;;;;6312628;28;19917;-79
2023/10/30 12:19:33;;;;;;;;;;;;;;;;;;6305476;28;19923;-79
2023/10/30 12:22:39;;;;;;;;;;;;;;;;;;6300006;28;19912;-79
2023/10/30 12:25:40;;;;;;;;;;;;;;;;;;6305641;28;20299;-79
2023/10/30 12:28:40;;;;;;;;;;;;;;;;;;6317134;28;20020;-79
2023/10/30 12:31:40;;;;;;;;;;;;;;;;;;6316736;28;19911;-79
2023/10/30 12:34:40;;;;;;;;;;;;;;;;;;6312078;28;19920;-79
2023/10/30 12:37:40;;;;;;;;;;;;;;;;;;6307401;28;19913;-79
2023/10/30 12:40:40;;;;;;;;;;;;;;;;;;6300743;28;20339;-79
2023/10/30 12:43:41;;;;;;;;;;;;;;;;;;6302994;28;20358;-79
2023/10/30 12:46:41;;;;;;;;;;;;;;;;;;6320040;28;19912;-79
2023/10/30 12:49:42;;;;;;;;;;;;;;;;;;6311476;28;20433;-79
2023/10/30 12:52:42;;;;;;;;;;;;;;;;;;6290494;28;19947;-79
2023/10/30 12:55:43;;;;;;;;;;;;;;;;;;6298035;28;19918;-79
2023/10/30 12:58:43;;;;;;;;;;;;;;;;;;6313746;28;19932;-79
2023/10/30 13:01:44;;;;;;;;;;;;;;;;;;6312081;28;19916;-79
2023/10/30 13:04:44;;;;;;;;;;;;;;;;;;6302253;28;19924;-79
2023/10/30 13:07:44;;;;;;;;;;;;;;;;;;6309448;28;20351;-78
2023/10/30 13:10:46;;;;;;;;;;;;;;;;;;6286505;28;20055;-79
2023/10/30 13:13:46;;;;;;;;;;;;;;;;;;6312076;28;19912;-78
2023/10/30 13:16:46;;;;;;;;;;;;;;;;;;6283690;28;20015;-78
2023/10/30 13:19:46;;;;;;;;;;;;;;;;;;6301292;28;19962;-78
2023/10/30 13:22:47;;;;;;;;;;;;;;;;;;6320872;28;19919;-78
2023/10/30 13:25:48;;;;;;;;;;;;;;;;;;6302989;28;20402;-79
2023/10/30 13:28:48;;;;;;;;;;;;;;;;;;6302692;28;19909;-79
2023/10/30 13:31:48;;;;;;;;;;;;;;;;;;6320432;28;20365;-79
2023/10/30 13:34:48;;;;;;;;;;;;;;;;;;6311610;28;19965;-79
2023/10/30 13:37:48;;;;;;;;;;;;;;;;;;6300027;28;19962;-79
2023/10/30 13:40:51;;;;;;;;;;;;;;;;;;6302153;28;19916;-79
2023/10/30 13:43:51;;;;;;;;;;;;;;;;;;6289083;28;20007;-79
2023/10/30 13:46:51;;;;;;;;;;;;;;;;;;6304820;28;20334;-79
2023/10/30 13:49:52;;;;;;;;;;;;;;;;;;6307010;28;19965;-79
2023/10/30 13:52:52;;;;;;;;;;;;;;;;;;6307702;28;19917;-79
2023/10/30 13:55:52;;;;;;;;;;;;;;;;;;6286287;28;20282;-79
2023/10/30 13:58:52;;;;;;;;;;;;;;;;;;6303385;28;19943;-78
2023/10/30 14:01:52;;;;;;;;;;;;;;;;;;6304745;28;19916;-79
2023/10/30 14:04:52;;;;;;;;;;;;;;;;;;6311673;28;20003;-78
2023/10/30 14:07:52;;;;;;;;;;;;;;;;;;6303179;28;20286;-78
2023/10/30 14:10:53;;;;;;;;;;;;;;;;;;6306717;28;19916;-78
2023/10/30 14:13:54;;;;;;;;;;;;;;;;;;6316460;28;20334;-79
2023/10/30 14:16:54;;;;;;;;;;;;;;;;;;6307839;28;19912;-79
2023/10/30 14:19:54;;;;;;;;;;;;;;;;;;6313874;28;19924;-79
2023/10/30 14:22:54;;;;;;;;;;;;;;;;;;6296058;28;19962;-79
2023/10/30 14:25:54;;;;;;;;;;;;;;;;;;6304714;28;19912;-79
2023/10/30 14:28:54;;;;;;;;;;;;;;;;;;6290439;28;19913;-79
2023/10/30 14:31:54;;;;;;;;;;;;;;;;;;6305271;28;19916;-79
2023/10/30 14:34:54;;;;;;;;;;;;;;;;;;6316213;28;20006;-79
2023/10/30 14:37:54;;;;;;;;;;;;;;;;;;6317136;28;20396;-79
2023/10/30 14:40:54;;;;;;;;;;;;;;;;;;6294688;28;19912;-79
2023/10/30 14:43:54;;;;;;;;;;;;;;;;;;6298610;28;19909;-79
2023/10/30 14:46:55;;;;;;;;;;;;;;;;;;6302564;28;19955;-79
2023/10/30 14:49:55;;;;;;;;;;;;;;;;;;6303601;28;20412;-79
2023/10/30 14:52:55;;;;;;;;;;;;;;;;;;6288166;28;19987;-79
2023/10/30 14:55:55;;;;;;;;;;;;;;;;;;6314121;28;19912;-79
2023/10/30 14:58:55;;;;;;;;;;;;;;;;;;6283783;28;19927;-79
2023/10/30 15:01:55;;;;;;;;;;;;;;;;;;6311859;28;19917;-79
2023/10/30 15:04:59;;;;;;;;;;;;;;;;;;6303656;28;19951;-79
2023/10/30 15:08:00;;;;;;;;;;;;;;;;;;6315264;28;19916;-79
2023/10/30 15:11:01;;;;;;;;;;;;;;;;;;6284516;28;20355;-79
2023/10/30 15:14:01;;;;;;;;;;;;;;;;;;6294089;28;19916;-79
2023/10/30 15:17:01;;;;;;;;;;;;;;;;;;6294298;28;20302;-79
2023/10/30 15:20:01;;;;;;;;;;;;;;;;;;6309575;28;19920;-78
2023/10/30 15:23:01;;;;;;;;;;;;;;;;;;6306786;28;19922;-79
2023/10/30 15:26:02;;;;;;;;;;;;;;;;;;6299700;28;19919;-79
2023/10/30 15:29:02;;;;;;;;;;;;;;;;;;6305264;28;20015;-79
2023/10/30 15:32:02;;;;;;;;;;;;;;;;;;6307508;28;20378;-79
2023/10/30 15:35:02;;;;;;;;;;;;;;;;;;6308833;28;20361;-79
2023/10/30 15:38:02;;;;;;;;;;;;;;;;;;6308980;28;19924;-79
2023/10/30 15:41:02;;;;;;;;;;;;;;;;;;6300353;28;19913;-79
2023/10/30 15:44:03;;;;;;;;;;;;;;;;;;6309761;28;19919;-79
2023/10/30 15:47:03;;;;;;;;;;;;;;;;;;6298478;28;20011;-77
2023/10/30 15:50:03;;;;;;;;;;;;;;;;;;6300841;28;19915;-79
2023/10/30 15:53:03;;;;;;;;;;;;;;;;;;6304016;28;19923;-79
2023/10/30 15:56:03;;;;;;;;;;;;;;;;;;6313408;28;20448;-79
2023/10/30 15:59:03;;;;;;;;;;;;;;;;;;6304308;28;20115;-79
2023/10/30 16:02:04;;;;;;;;;;;;;;;;;;6310786;28;20345;-78
2023/10/30 16:05:04;;;;;;;;;;;;;;;;;;6306697;28;19951;-78
2023/10/30 16:08:04;;;;;;;;;;;;;;;;;;6302624;28;20016;-78
2023/10/30 16:11:04;;;;;;;;;;;;;;;;;;6305526;28;19929;-78
2023/10/30 16:14:04;;;;;;;;;;;;;;;;;;6301575;28;19916;-78
2023/10/30 16:17:04;;;;;;;;;;;;;;;;;;6309567;28;20002;-79
2023/10/30 16:20:05;;;;;;;;;;;;;;;;;;6317219;28;20293;-79
2023/10/30 16:23:05;;;;;;;;;;;;;;;;;;6308968;28;19919;-78
2023/10/30 16:26:05;;;;;;;;;;;;;;;;;;6297102;28;19913;-79
2023/10/30 16:29:06;;;;;;;;;;;;;;;;;;6320535;28;19915;-87
2023/10/30 16:32:06;;;;;;;;;;;;;;;;;;6302644;28;20339;-87
2023/10/30 16:35:06;;;;;;;;;;;;;;;;;;6302144;28;19920;-87
2023/10/30 16:38:06;;;;;;;;;;;;;;;;;;6305684;28;20382;-87
2023/10/30 16:41:07;;;;;;;;;;;;;;;;;;6308603;28;19971;-87
2023/10/30 16:44:07;;;;;;;;;;;;;;;;;;6309428;28;19920;-87
2023/10/30 16:47:07;;;;;;;;;;;;;;;;;;6307327;28;20017;-87
2023/10/30 16:50:07;;;;;;;;;;;;;;;;;;6321586;28;19923;-87
2023/10/30 16:53:07;;;;;;;;;;;;;;;;;;6313320;28;20369;-87
2023/10/30 16:56:07;;;;;;;;;;;;;;;;;;6314160;28;19973;-87
2023/10/30 16:59:07;;;;;;;;;;;;;;;;;;6312639;28;19928;-87
2023/10/30 17:02:07;;;;;;;;;;;;;;;;;;6301962;28;20380;-87
2023/10/30 17:05:08;;;;;;;;;;;;;;;;;;6308238;28;19916;-87
2023/10/30 17:08:08;;;;;;;;;;;;;;;;;;6299080;28;19921;-87
2023/10/30 17:11:09;;;;;;;;;;;;;;;;;;6315247;28;19916;-87
2023/10/30 17:14:09;;;;;;;;;;;;;;;;;;6311293;28;19931;-87
2023/10/30 17:17:09;;;;;;;;;;;;;;;;;;6299149;28;19909;-87
2023/10/30 17:20:09;;;;;;;;;;;;;;;;;;6318638;28;19916;-87
2023/10/30 17:23:09;;;;;;;;;;;;;;;;;;6300729;28;19923;-86
2023/10/30 17:26:10;;;;;;;;;;;;;;;;;;6296503;28;20011;-86
2023/10/30 17:29:10;;;;;;;;;;;;;;;;;;6312319;28;19912;-86
2023/10/30 17:32:10;;;;;;;;;;;;;;;;;;6305385;28;19956;-86
2023/10/30 17:35:11;;;;;;;;;;;;;;;;;;6293172;28;19919;-86
2023/10/30 17:38:11;;;;;;;;;;;;;;;;;;6304657;28;19974;-86
2023/10/30 17:41:11;;;;;;;;;;;;;;;;;;6301167;28;20296;-86
2023/10/30 17:44:12;;;;;;;;;;;;;;;;;;6295681;28;20405;-86
2023/10/30 17:47:12;;;;;;;;;;;;;;;;;;6303443;28;19908;-86
2023/10/30 17:50:12;;;;;;;;;;;;;;;;;;6309609;28;19949;-86
2023/10/30 17:53:12;;;;;;;;;;;;;;;;;;6305238;28;19916;-86
2023/10/30 17:56:13;;;;;;;;;;;;;;;;;;6314360;28;20344;-87
2023/10/30 17:59:13;;;;;;;;;;;;;;;;;;6309508;28;20457;-86
2023/10/30 18:02:13;;;;;;;;;;;;;;;;;;6303502;28;20409;-86
2023/10/30 18:05:14;;;;;;;;;;;;;;;;;;6301374;28;19917;-86
2023/10/30 18:08:14;;;;;;;;;;;;;;;;;;6309014;28;20338;-86
2023/10/30 18:11:14;;;;;;;;;;;;;;;;;;6297311;28;20310;-86
2023/10/30 18:14:14;;;;;;;;;;;;;;;;;;6311378;28;20404;-85
2023/10/30 18:17:14;;;;;;;;;;;;;;;;;;6299955;28;20399;-85
2023/10/30 18:20:15;;;;;;;;;;;;;;;;;;6309389;28;20065;-85
2023/10/30 18:23:18;;;;;;;;;;;;;;;;;;6305838;28;19920;-85
2023/10/30 18:26:18;;;;;;;;;;;;;;;;;;6311131;28;19956;-85
2023/10/30 18:29:18;;;;;;;;;;;;;;;;;;6308938;28;19922;-85
2023/10/30 18:32:18;;;;;;;;;;;;;;;;;;6304519;28;19912;-85
2023/10/30 18:35:18;;;;;;;;;;;;;;;;;;6308104;28;20310;-85
2023/10/30 18:38:19;;;;;;;;;;;;;;;;;;6300544;28;19917;-85
2023/10/30 18:41:19;;;;;;;;;;;;;;;;;;6301790;28;19939;-85
2023/10/30 18:44:19;;;;;;;;;;;;;;;;;;6306118;28;19966;-86
2023/10/30 18:47:19;;;;;;;;;;;;;;;;;;6310120;28;19916;-85
2023/10/30 18:50:19;;;;;;;;;;;;;;;;;;6304959;28;19999;-85
2023/10/30 18:53:20;;;;;;;;;;;;;;;;;;6326831;28;19938;-86
2023/10/30 18:56:20;;;;;;;;;;;;;;;;;;6323156;28;19916;-86
2023/10/30 18:59:20;;;;;;;;;;;;;;;;;;6308167;28;20028;-86
2023/10/30 19:02:20;;;;;;;;;;;;;;;;;;6316828;28;19920;-86
2023/10/30 19:05:21;;;;;;;;;;;;;;;;;;6303702;28;19963;-86
2023/10/30 19:08:21;;;;;;;;;;;;;;;;;;6313930;28;19917;-86
2023/10/30 19:11:21;;;;;;;;;;;;;;;;;;6303569;28;19944;-86
2023/10/30 19:14:21;;;;;;;;;;;;;;;;;;6305092;28;19916;-86
2023/10/30 19:17:22;;;;;;;;;;;;;;;;;;6314823;28;19923;-86
2023/10/30 19:20:22;;;;;;;;;;;;;;;;;;6294705;28;19924;-86
2023/10/30 19:23:22;;;;;;;;;;;;;;;;;;6302428;28;19912;-86
2023/10/30 19:26:22;;;;;;;;;;;;;;;;;;6307121;28;19916;-85
2023/10/30 19:29:22;;;;;;;;;;;;;;;;;;6312223;28;20006;-86
2023/10/30 19:32:22;;;;;;;;;;;;;;;;;;6308969;28;20322;-85
2023/10/30 19:35:23;;;;;;;;;;;;;;;;;;6317591;28;19917;-84
2023/10/30 19:38:24;;;;;;;;;;;;;;;;;;6308081;28;19964;-85
2023/10/30 19:41:24;;;;;;;;;;;;;;;;;;6309427;28;20339;-85
2023/10/30 19:44:24;;;;;;;;;;;;;;;;;;6296643;28;19912;-84
2023/10/30 19:47:24;;;;;;;;;;;;;;;;;;6309574;28;19908;-85
2023/10/30 19:50:24;;;;;;;;;;;;;;;;;;6299906;28;19909;-83
2023/10/30 19:53:25;;;;;;;;;;;;;;;;;;6298764;28;19979;-84
2023/10/30 19:56:25;;;;;;;;;;;;;;;;;;6318765;28;19919;-79
2023/10/30 19:59:25;;;;;;;;;;;;;;;;;;6313327;28;19916;-79
2023/10/30 20:02:28;;;;;;;;;;;;;;;;;;6287651;28;19908;-79
2023/10/30 20:05:28;;;;;;;;;;;;;;;;;;6316264;28;19938;-79
2023/10/30 20:08:28;;;;;;;;;;;;;;;;;;6313428;28;20354;-79
2023/10/30 20:11:28;;;;;;;;;;;;;;;;;;6308330;28;19952;-78
2023/10/30 20:14:29;;;;;;;;;;;;;;;;;;6303267;28;20306;-79
2023/10/30 20:17:29;;;;;;;;;;;;;;;;;;6309120;28;19908;-79
2023/10/30 20:20:29;;;;;;;;;;;;;;;;;;6295621;28;19927;-79
2023/10/30 20:23:29;;;;;;;;;;;;;;;;;;6303093;28;19920;-79
2023/10/30 20:26:29;;;;;;;;;;;;;;;;;;6318438;28;19916;-79
2023/10/30 20:29:29;;;;;;;;;;;;;;;;;;6320894;28;19915;-79